createdAt,value
2022-11-26T00:01:18.194Z,7.25
2022-11-26T00:05:03.258Z,7.93
2022-11-26T00:08:45.185Z,9.00
2022-11-26T00:12:31.312Z,10.57
2022-11-26T00:16:14.894Z,9.73
2022-11-26T00:19:56.922Z,6.80
2022-11-26T00:23:39.187Z,9.60
2022-11-26T00:27:22.332Z,9.77
2022-11-26T00:31:10.088Z,9.02
2022-11-26T00:34:52.977Z,11.10
2022-11-26T00:38:35.159Z,8.25
2022-11-26T00:42:18.031Z,6.65
2022-11-26T00:46:00.039Z,7.47
2022-11-26T00:49:42.226Z,9.23
2022-11-26T00:53:26.418Z,10.57
2022-11-26T00:57:10.808Z,7.60
2022-11-26T01:00:54.731Z,8.95
2022-11-26T01:04:37.061Z,9.38
2022-11-26T01:08:47.256Z,7.00
2022-11-26T01:12:29.263Z,10.60
2022-11-26T01:16:21.675Z,13.18
2022-11-26T01:20:04.210Z,11.13
2022-11-26T01:23:46.813Z,6.63
2022-11-26T01:27:28.800Z,7.82
2022-11-26T01:31:16.598Z,11.60
2022-11-26T01:34:58.577Z,10.75
2022-11-26T01:38:40.490Z,10.32
2022-11-26T01:42:32.570Z,9.98
2022-11-26T01:46:22.689Z,7.80
2022-11-26T01:50:32.205Z,9.35
2022-11-26T01:54:15.243Z,8.40
2022-11-26T01:57:57.243Z,8.07
2022-11-26T02:01:39.594Z,10.02
2022-11-26T02:05:25.283Z,8.68
2022-11-26T02:09:09.163Z,9.73
2022-11-26T02:12:51.766Z,12.02
2022-11-26T02:16:41.126Z,12.48
2022-11-26T02:20:47.379Z,8.73
2022-11-26T02:25:14.672Z,8.10
2022-11-26T02:29:00.714Z,9.95
2022-11-26T02:33:05.552Z,9.27
2022-11-26T02:36:53.686Z,10.52
2022-11-26T02:40:35.633Z,9.13
2022-11-26T02:44:23.745Z,10.18
2022-11-26T02:48:11.264Z,8.43
2022-11-26T02:51:57.488Z,11.43
2022-11-26T02:55:45.019Z,9.60
2022-11-26T02:59:27.440Z,9.43
2022-11-26T03:03:24.097Z,11.68
2022-11-26T03:07:09.229Z,13.68
2022-11-26T03:10:51.388Z,12.07
2022-11-26T03:14:33.380Z,10.93
2022-11-26T03:18:17.488Z,13.13
2022-11-26T03:21:59.431Z,11.50
2022-11-26T03:25:41.406Z,15.43
2022-11-26T03:29:23.433Z,9.00
2022-11-26T03:33:05.401Z,10.60
2022-11-26T03:36:47.518Z,6.50
2022-11-26T03:40:29.479Z,12.65
2022-11-26T03:44:12.416Z,13.40
2022-11-26T03:47:54.356Z,11.38
2022-11-26T03:51:36.421Z,10.02
2022-11-26T03:55:18.486Z,8.18
2022-11-26T03:59:00.561Z,12.00
2022-11-26T04:02:42.567Z,11.23
2022-11-26T04:06:24.724Z,8.25
2022-11-26T04:10:07.407Z,9.30
2022-11-26T04:13:49.396Z,6.97
2022-11-26T04:17:31.359Z,8.40
2022-11-26T04:21:13.622Z,12.82
2022-11-26T04:24:55.961Z,10.30
2022-11-26T04:28:37.956Z,14.48
2022-11-26T04:32:19.932Z,10.80
2022-11-26T04:36:02.213Z,11.27
2022-11-26T04:39:44.176Z,8.90
2022-11-26T04:43:26.160Z,10.30
2022-11-26T04:47:08.167Z,8.65
2022-11-26T04:50:50.776Z,10.93
2022-11-26T04:54:32.776Z,14.13
2022-11-26T04:58:17.504Z,9.38
2022-11-26T05:02:02.457Z,7.50
2022-11-26T05:05:44.535Z,7.75
2022-11-26T05:09:27.572Z,9.60
2022-11-26T05:13:09.918Z,11.38
2022-11-26T05:16:51.902Z,6.55
2022-11-26T05:20:33.975Z,9.85
2022-11-26T05:24:15.971Z,9.07
2022-11-26T05:27:57.945Z,6.85
2022-11-26T05:31:40.002Z,8.05
2022-11-26T05:35:22.527Z,8.95
2022-11-26T05:39:04.524Z,9.10
2022-11-26T05:42:46.641Z,8.77
2022-11-26T05:46:28.743Z,10.65
2022-11-26T05:50:11.238Z,9.02
2022-11-26T05:53:53.280Z,11.10
2022-11-26T05:57:35.295Z,8.25
2022-11-26T06:01:17.377Z,11.02
2022-11-26T06:04:59.488Z,9.10
2022-11-26T06:08:41.496Z,11.00
2022-11-26T06:12:24.492Z,9.07
2022-11-26T06:16:06.904Z,7.95
2022-11-26T06:19:48.892Z,9.32
2022-11-26T06:23:32.820Z,10.70
2022-11-26T06:27:14.975Z,11.68
2022-11-26T06:30:56.907Z,12.10
2022-11-26T06:34:39.138Z,10.43
2022-11-26T06:38:21.702Z,7.60
2022-11-26T06:42:03.830Z,14.20
2022-11-26T06:45:45.769Z,8.98
2022-11-26T06:49:27.864Z,10.35
2022-11-26T06:53:09.818Z,9.27
2022-11-26T06:56:51.789Z,11.65
2022-11-26T07:00:33.705Z,7.25
2022-11-26T07:04:15.799Z,10.35
2022-11-26T07:07:57.831Z,9.32
2022-11-26T07:11:41.151Z,10.25
2022-11-26T07:15:23.212Z,7.90
2022-11-26T07:19:05.163Z,11.32
2022-11-26T07:22:49.785Z,7.25
2022-11-26T07:26:31.972Z,10.57
2022-11-26T07:30:14.317Z,10.77
2022-11-26T07:33:57.772Z,9.82
2022-11-26T07:37:39.681Z,10.98
2022-11-26T07:41:21.980Z,12.70
2022-11-26T07:45:04.693Z,10.52
2022-11-26T07:48:47.304Z,12.00
2022-11-26T07:52:29.441Z,15.52
2022-11-26T07:56:11.464Z,14.02
2022-11-26T07:59:53.492Z,11.60
2022-11-26T08:03:41.051Z,15.02
2022-11-26T08:07:28.849Z,12.93
2022-11-26T08:11:20.581Z,12.20
2022-11-26T08:15:02.698Z,10.82
2022-11-26T08:18:44.700Z,13.55
2022-11-26T08:22:28.789Z,11.68
2022-11-26T08:26:23.792Z,11.13
2022-11-26T08:30:08.330Z,11.45
2022-11-26T08:33:50.286Z,11.50
2022-11-26T08:37:32.256Z,7.40
2022-11-26T08:41:14.732Z,9.05
2022-11-26T08:44:56.663Z,12.90
2022-11-26T08:48:41.746Z,12.45
2022-11-26T08:52:23.751Z,11.82
2022-11-26T08:56:06.857Z,11.77
2022-11-26T08:59:48.820Z,9.75
2022-11-26T09:03:32.462Z,9.15
2022-11-26T09:07:14.776Z,11.27
2022-11-26T09:10:56.875Z,13.88
2022-11-26T09:14:40.897Z,9.73
2022-11-26T09:18:23.039Z,10.02
2022-11-26T09:22:05.408Z,12.50
2022-11-26T09:25:50.718Z,9.63
2022-11-26T09:29:32.651Z,8.45
2022-11-26T09:33:14.622Z,7.65
2022-11-26T09:36:56.568Z,7.50
2022-11-26T09:40:56.273Z,8.45
2022-11-26T09:44:55.856Z,11.38
2022-11-26T09:48:39.830Z,9.65
2022-11-26T09:52:24.266Z,9.35
2022-11-26T09:56:14.890Z,11.38
2022-11-26T09:59:56.987Z,13.77
2022-11-26T10:03:39.407Z,10.10
2022-11-26T10:07:30.167Z,11.80
2022-11-26T10:11:37.073Z,9.90
2022-11-26T10:15:28.522Z,8.75
2022-11-26T10:19:31.572Z,8.88
2022-11-26T10:23:13.438Z,13.55
2022-11-26T10:26:56.324Z,10.02
2022-11-26T10:30:38.473Z,9.45
2022-11-26T10:34:31.308Z,9.57
2022-11-26T10:38:15.399Z,9.13
2022-11-26T10:41:57.497Z,6.20
2022-11-26T10:45:46.455Z,8.77
2022-11-26T10:49:30.034Z,8.65
2022-11-26T10:53:23.232Z,8.38
2022-11-26T10:57:18.481Z,7.82
2022-11-26T11:01:03.696Z,7.50
2022-11-26T11:04:49.140Z,8.13
2022-11-26T11:08:32.937Z,7.78
2022-11-26T11:12:18.607Z,7.43
2022-11-26T11:16:02.641Z,8.90
2022-11-26T11:19:44.775Z,7.97
2022-11-26T11:24:00.163Z,8.45
2022-11-26T11:27:41.290Z,7.95
2022-11-26T11:31:26.122Z,4.90
2022-11-26T11:35:22.424Z,5.72
2022-11-26T11:39:04.766Z,10.30
2022-11-26T11:42:53.636Z,6.15
2022-11-26T11:47:03.525Z,9.88
2022-11-26T11:51:19.752Z,9.25
2022-11-26T11:55:18.999Z,8.93
2022-11-26T11:59:25.993Z,7.80
2022-11-26T12:03:52.606Z,7.38
2022-11-26T12:07:54.200Z,6.97
2022-11-26T12:11:49.820Z,11.35
2022-11-26T12:15:31.774Z,8.20
2022-11-26T12:19:25.041Z,7.10
2022-11-26T12:23:31.710Z,9.73
2022-11-26T12:27:35.571Z,6.17
2022-11-26T12:31:42.055Z,6.25
2022-11-26T12:35:34.736Z,7.90
2022-11-26T12:39:39.942Z,8.52
2022-11-26T12:43:40.215Z,6.43
2022-11-26T12:47:33.121Z,12.45
2022-11-26T12:51:33.582Z,6.80
2022-11-26T12:55:22.522Z,7.95
2022-11-26T12:59:17.722Z,10.13
2022-11-26T13:02:59.758Z,6.88
2022-11-26T13:07:06.249Z,10.02
2022-11-26T13:11:10.654Z,5.88
2022-11-26T13:15:02.578Z,7.60
2022-11-26T13:18:55.382Z,10.60
2022-11-26T13:22:54.792Z,10.98
2022-11-26T13:26:51.698Z,8.40
2022-11-26T13:31:15.485Z,10.82
2022-11-26T13:35:41.268Z,9.20
2022-11-26T13:39:50.917Z,7.90
2022-11-26T13:43:38.612Z,8.48
2022-11-26T13:47:46.381Z,8.20
2022-11-26T13:51:42.591Z,7.45
2022-11-26T13:55:33.184Z,6.77
2022-11-26T13:59:28.294Z,7.15
2022-11-26T14:03:47.065Z,6.88
2022-11-26T14:07:29.185Z,7.18
2022-11-26T14:11:12.814Z,10.55
2022-11-26T14:14:54.812Z,7.35
2022-11-26T14:18:48.832Z,5.70
2022-11-26T14:22:36.501Z,7.20
2022-11-26T14:26:30.591Z,7.63
2022-11-26T14:30:18.330Z,9.45
2022-11-26T14:34:11.024Z,9.48
2022-11-26T14:37:54.822Z,6.70
2022-11-26T14:41:42.507Z,7.18
2022-11-26T14:45:24.864Z,8.98
2022-11-26T14:49:20.928Z,8.25
2022-11-26T14:53:06.676Z,5.57
2022-11-26T14:56:49.333Z,6.57
2022-11-26T15:00:33.054Z,6.15
2022-11-26T15:04:27.801Z,5.65
2022-11-26T15:08:20.430Z,7.15
2022-11-26T15:12:13.027Z,5.30
2022-11-26T15:15:57.561Z,3.95
2022-11-26T15:19:41.447Z,4.18
2022-11-26T15:23:36.877Z,5.63
2022-11-26T15:27:48.924Z,4.18
2022-11-26T15:31:43.519Z,6.70
2022-11-26T15:35:25.661Z,6.55
2022-11-26T15:39:23.891Z,4.50
2022-11-26T15:43:05.897Z,5.78
2022-11-26T15:46:51.451Z,4.70
2022-11-26T15:50:36.367Z,5.05
2022-11-26T15:54:30.819Z,6.75
2022-11-26T15:58:33.123Z,6.35
2022-11-26T16:02:24.964Z,5.07
2022-11-26T16:06:10.482Z,6.93
2022-11-26T16:10:08.778Z,5.18
2022-11-26T16:13:50.900Z,5.60
2022-11-26T16:17:33.277Z,7.05
2022-11-26T16:21:18.163Z,7.88
2022-11-26T16:25:18.505Z,4.72
2022-11-26T16:29:00.488Z,5.80
2022-11-26T16:32:42.459Z,7.10
2022-11-26T16:36:28.231Z,6.63
2022-11-26T16:40:16.576Z,8.30
2022-11-26T16:43:58.768Z,8.70
2022-11-26T16:47:53.652Z,9.63
2022-11-26T16:51:35.579Z,8.43
2022-11-26T16:55:22.143Z,9.70
2022-11-26T16:59:20.101Z,8.20
2022-11-26T17:03:02.243Z,10.60
2022-11-26T17:06:44.365Z,8.85
2022-11-26T17:10:29.467Z,9.68
2022-11-26T17:14:11.784Z,10.50
2022-11-26T17:18:03.552Z,11.65
2022-11-26T17:21:45.484Z,12.23
2022-11-26T17:25:27.507Z,8.60
2022-11-26T17:29:13.279Z,8.23
2022-11-26T17:32:55.264Z,9.52
2022-11-26T17:36:37.290Z,11.63
2022-11-26T17:40:21.285Z,8.38
2022-11-26T17:44:03.317Z,9.18
2022-11-26T17:47:45.998Z,10.35
2022-11-26T17:51:27.909Z,6.70
2022-11-26T17:55:11.376Z,7.18
2022-11-26T17:58:54.809Z,7.38
2022-11-26T18:02:36.803Z,7.75
2022-11-26T18:06:26.660Z,5.57
2022-11-26T18:10:14.134Z,9.95
2022-11-26T18:13:56.075Z,8.18
2022-11-26T18:17:38.065Z,6.20
2022-11-26T18:21:20.412Z,6.22
2022-11-26T18:25:02.371Z,6.90
2022-11-26T18:28:44.283Z,4.68
2022-11-26T18:32:26.260Z,5.55
2022-11-26T18:36:08.449Z,6.32
2022-11-26T18:39:50.424Z,4.55
2022-11-26T18:43:37.356Z,7.75
2022-11-26T18:47:19.450Z,5.63
2022-11-26T18:51:02.002Z,4.65
2022-11-26T18:54:44.049Z,5.88
2022-11-26T18:58:26.362Z,3.60
2022-11-26T19:02:10.698Z,2.78
2022-11-26T19:05:53.896Z,3.65
2022-11-26T19:09:37.878Z,3.33
2022-11-26T19:13:20.148Z,4.60
2022-11-26T19:17:02.420Z,3.45
2022-11-26T19:20:53.108Z,4.75
2022-11-26T19:24:35.204Z,2.55
2022-11-26T19:28:17.158Z,3.05
2022-11-26T19:31:59.167Z,3.72
2022-11-26T19:35:41.151Z,1.67
2022-11-26T19:39:23.413Z,3.35
2022-11-26T19:43:05.425Z,3.58
2022-11-26T19:46:48.360Z,1.85
2022-11-26T19:50:30.332Z,2.40
2022-11-26T19:54:13.963Z,2.35
2022-11-26T19:57:55.912Z,2.45
2022-11-26T20:01:38.168Z,3.05
2022-11-26T20:05:20.091Z,2.88
2022-11-26T20:09:04.457Z,4.28
2022-11-26T20:12:46.396Z,2.60
2022-11-26T20:16:30.794Z,1.45
2022-11-26T20:20:12.951Z,2.80
2022-11-26T20:23:58.251Z,3.35
2022-11-26T20:27:40.167Z,3.58
2022-11-26T20:31:24.242Z,3.63
2022-11-26T20:35:06.904Z,1.02
2022-11-26T20:39:02.345Z,1.92
2022-11-26T20:42:46.185Z,1.85
2022-11-26T20:46:28.829Z,1.83
2022-11-26T20:50:11.407Z,1.80
2022-11-26T20:53:53.806Z,1.63
2022-11-26T20:57:37.189Z,1.83
2022-11-26T21:01:22.254Z,1.27
2022-11-26T21:05:04.564Z,1.52
2022-11-26T21:08:46.680Z,2.08
2022-11-26T21:12:29.147Z,1.67
2022-11-26T21:16:14.092Z,1.13
2022-11-26T21:19:56.035Z,0.98
2022-11-26T21:23:39.336Z,2.40
2022-11-26T21:27:21.280Z,1.30
2022-11-26T21:31:17.293Z,1.10
2022-11-26T21:34:59.387Z,0.80
2022-11-26T21:38:42.056Z,1.25
2022-11-26T21:42:23.990Z,0.98
2022-11-26T21:46:08.199Z,1.33
2022-11-26T21:49:50.183Z,0.55
2022-11-26T21:53:32.529Z,1.63
2022-11-26T21:57:14.458Z,0.80
2022-11-26T22:00:56.504Z,0.88
2022-11-26T22:04:39.206Z,0.45
2022-11-26T22:08:21.197Z,0.75
2022-11-26T22:12:03.395Z,1.55
2022-11-26T22:15:46.234Z,1.38
2022-11-26T22:19:28.236Z,1.10
2022-11-26T22:23:10.168Z,0.75
2022-11-26T22:26:52.511Z,2.58
2022-11-26T22:30:35.694Z,2.35
2022-11-26T22:34:22.057Z,1.00
2022-11-26T22:38:04.319Z,0.47
2022-11-26T22:41:47.541Z,0.95
2022-11-26T22:45:30.602Z,0.77
2022-11-26T22:49:14.504Z,1.90
2022-11-26T22:52:56.601Z,0.63
2022-11-26T22:56:39.387Z,1.13
2022-11-26T23:00:44.314Z,0.60
2022-11-26T23:04:26.210Z,0.90
2022-11-26T23:08:08.212Z,0.47
2022-11-26T23:11:50.873Z,1.05
2022-11-26T23:15:33.371Z,0.60
2022-11-26T23:19:16.247Z,0.60
2022-11-26T23:22:58.171Z,1.20
2022-11-26T23:26:40.899Z,2.20
2022-11-26T23:30:23.574Z,1.83
2022-11-26T23:34:06.605Z,2.05
2022-11-26T23:37:48.584Z,1.50
2022-11-26T23:41:31.115Z,2.03
2022-11-26T23:45:13.116Z,2.20
2022-11-26T23:48:55.444Z,1.10
2022-11-26T23:52:37.505Z,1.45
2022-11-26T23:56:30.015Z,0.63
